Stations météo

réclame
Mon MeteoGroup
Malaga,Puerto, Espagne (8479): Température de l'air & dewpoint: 12.10.2017 16:00:00 - 18.10.2017 16:00:00 (CEST)Malaga,Puerto, Espagne (8479): Vitesse du vent & gusts: 12.10.2017 16:00:00 - 18.10.2017 16:00:00 (CEST)Malaga,Puerto, Espagne (8479): Direction du vent: 12.10.2017 16:00:00 - 18.10.2017 16:00:00 (CEST)Malaga,Puerto, Espagne (8479): reduced air pressure: 12.10.2017 16:00:00 - 18.10.2017 16:00:00 (CEST)Malaga,Puerto, Espagne (8479): Quantités de précipitations: 12.10.2017 16:00:00 - 18.10.2017 16:00:00 (CEST)
Date & Time tt [°C] td [°C] ff [km/h] ff [knt] fx [km/h] fx [knt] dd ppp [hPa] rr [mm]
18.10.2017 16:00:00 - - - - - - - - -
18.10.2017 15:00:00 19,4 15,9 14 8 27 14 SSW 1013,9 0,0
18.10.2017 14:00:00 18,6 15,8 6 4 18 10 E 1015,0 -
18.10.2017 13:00:00 19,1 14,8 5 3 16 8 ENE 1015,5 0,5
18.10.2017 12:00:00 18,8 15,1 5 3 13 7 ENE 1015,6 0,0
18.10.2017 11:00:00 18,0 15,3 7 4 14 8 E 1015,6 0,0
18.10.2017 10:00:00 17,2 15,5 6 3 16 9 E 1015,3 0,0
18.10.2017 09:00:00 17,0 15,5 6 3 20 11 S 1015,0 8,2
18.10.2017 08:00:00 17,1 15,3 1 0 39 21 NE 1015,3 -
18.10.2017 07:00:00 20,8 15,6 10 5 32 17 E 1014,0 0,0
18.10.2017 06:00:00 20,6 15,6 6 4 21 11 E 1014,3 0,0
18.10.2017 05:00:00 20,2 15,6 5 3 11 6 E 1015,4 0,0
18.10.2017 04:00:00 19,7 14,7 4 2 8 4 N 1016,4 0,0
18.10.2017 03:00:00 19,8 14,8 1 1 9 5 NNW 1017,1 0,0
18.10.2017 02:00:00 20,1 15,5 0 0 8 4 E 1017,4 -
18.10.2017 01:00:00 19,7 15,1 7 4 11 6 NW 1018,5 0,0
18.10.2017 00:00:00 19,9 16,9 0 0 4 2 E 1018,6 0,0
17.10.2017 23:00:00 20,2 17,2 0 0 4 2 SE 1019,1 0,0
17.10.2017 22:00:00 20,7 17,3 1 0 6 3 SSE 1019,1 0,0
17.10.2017 21:00:00 20,5 16,9 5 3 8 4 E 1018,7 0,0
17.10.2017 20:00:00 20,6 16,8 4 2 8 4 E 1018,9 -
17.10.2017 19:00:00 21,2 16,2 4 2 6 4 S 1019,2 0,0
17.10.2017 18:00:00 21,5 16,5 4 2 9 5 E 1019,5 0,0
17.10.2017 17:00:00 21,4 16,6 6 4 9 5 ESE 1019,9 0,0
17.10.2017 16:00:00 21,5 17,5 8 4 13 7 ESE 1020,1 0,0
17.10.2017 15:00:00 22,4 16,9 8 4 16 9 SSE 1020,9 0,0
17.10.2017 14:00:00 22,2 16,7 6 4 20 11 E 1021,6 -
17.10.2017 13:00:00 22,3 17,0 5 3 15 8 ESE 1022,5 0,0
17.10.2017 12:00:00 22,2 16,7 4 2 11 6 SE 1022,8 0,0
17.10.2017 11:00:00 23,1 16,4 3 2 8 4 ESE 1023,0 0,0
17.10.2017 10:00:00 21,5 15,8 0 0 7 4 NE 1023,1 0,0
17.10.2017 09:00:00 20,6 14,5 2 1 9 5 NW 1022,7 0,0
17.10.2017 08:00:00 20,0 13,9 4 2 8 4 W 1021,8 -
17.10.2017 07:00:00 20,8 15,1 2 1 10 5 NE 1021,6 0,0
17.10.2017 06:00:00 20,3 14,0 3 2 11 6 NNW 1022,1 0,0
17.10.2017 05:00:00 20,0 13,7 6 3 12 7 NW 1022,7 0,0
17.10.2017 04:00:00 19,6 13,3 9 5 16 8 NW 1023,3 0,0
17.10.2017 03:00:00 19,5 13,2 9 5 15 8 NNW 1023,6 0,0
17.10.2017 02:00:00 19,8 13,7 7 4 12 6 N 1023,9 -
17.10.2017 01:00:00 20,0 13,9 6 4 13 7 N 1024,0 0,0
17.10.2017 00:00:00 20,4 14,3 5 3 10 6 NNW 1024,3 0,0
16.10.2017 23:00:00 20,8 14,9 5 3 9 5 N 1024,1 0,0
16.10.2017 22:00:00 21,2 16,0 2 1 10 5 ENE 1023,7 0,0
16.10.2017 21:00:00 21,7 16,0 3 2 12 6 SE 1023,5 0,0
16.10.2017 20:00:00 21,7 15,5 4 2 12 6 E 1023,5 -
16.10.2017 19:00:00 22,7 14,5 9 5 13 7 E 1023,3 0,0
16.10.2017 18:00:00 23,8 14,8 5 3 10 6 E 1023,1 0,0
16.10.2017 17:00:00 23,6 14,3 5 3 11 6 ESE 1023,2 0,0
16.10.2017 16:00:00 23,6 13,8 5 3 11 6 E 1023,3 0,0
16.10.2017 15:00:00 25,3 14,4 6 3 14 8 SSE 1023,7 0,0
16.10.2017 14:00:00 25,2 14,6 6 3 13 7 S 1024,4 -
16.10.2017 13:00:00 25,1 15,1 5 3 11 6 S 1024,7 0,0
16.10.2017 12:00:00 24,5 15,4 6 4 13 7 SSW 1024,9 0,0
16.10.2017 11:00:00 24,9 16,1 2 1 9 5 SE 1024,3 0,0
16.10.2017 10:00:00 21,5 15,1 6 3 18 10 N 1023,9 0,0
16.10.2017 09:00:00 19,4 14,9 10 6 16 8 N 1023,9 0,0
16.10.2017 08:00:00 19,6 15,3 4 2 19 11 NNW 1023,0 -
16.10.2017 07:00:00 19,6 15,5 7 4 15 8 NNW 1022,4 0,0
16.10.2017 06:00:00 20,0 16,6 6 3 13 7 NW 1022,4 0,0
16.10.2017 05:00:00 21,1 18,5 3 1 7 4 W 1022,4 0,0
16.10.2017 04:00:00 21,1 18,5 0 0 4 2 SW 1022,8 0,0
16.10.2017 03:00:00 21,1 18,5 2 1 8 5 S 1023,1 0,0
16.10.2017 02:00:00 21,3 18,7 6 3 11 6 ESE 1023,3 -
16.10.2017 01:00:00 21,9 17,3 7 4 11 6 ESE 1023,5 0,0
16.10.2017 00:00:00 21,5 15,1 4 2 9 5 NW 1023,5 0,0
15.10.2017 23:00:00 21,4 15,3 6 4 9 5 NW 1023,0 0,0
15.10.2017 22:00:00 21,6 16,3 0 0 7 4 W 1022,3 0,0
15.10.2017 21:00:00 22,2 16,7 3 2 8 4 S 1022,0 0,0
15.10.2017 20:00:00 22,4 16,4 3 1 9 5 SSW 1021,9 -
15.10.2017 19:00:00 23,3 16,4 4 2 15 8 S 1021,6 0,0
15.10.2017 18:00:00 23,4 16,2 10 5 17 9 S 1021,7 0,0
15.10.2017 17:00:00 23,8 16,3 13 7 17 9 S 1021,8 0,0
15.10.2017 16:00:00 24,9 16,3 7 4 14 8 S 1022,1 0,0
15.10.2017 15:00:00 24,6 16,1 10 5 18 10 S 1022,7 0,0
15.10.2017 14:00:00 24,3 16,3 12 7 16 9 S 1023,5 -
15.10.2017 13:00:00 24,7 17,2 8 5 13 7 SSE 1024,2 0,0
15.10.2017 12:00:00 25,0 15,6 7 4 11 6 SSE 1024,1 0,0
15.10.2017 11:00:00 26,6 13,7 1 0 8 5 ESE 1023,9 0,0
15.10.2017 10:00:00 22,7 10,2 3 2 13 7 WNW 1023,3 0,0
15.10.2017 09:00:00 20,2 8,9 8 5 15 8 NW 1023,5 0,0
15.10.2017 08:00:00 20,1 9,1 9 5 14 8 NW 1023,1 -
15.10.2017 07:00:00 19,7 9,3 8 4 14 8 NW 1023,3 0,0
15.10.2017 06:00:00 20,0 9,9 10 6 16 9 NW 1023,1 0,0
15.10.2017 05:00:00 20,0 9,6 6 3 15 8 NNW 1023,3 0,0
15.10.2017 04:00:00 20,2 9,2 9 5 14 7 NW 1023,5 0,0
15.10.2017 03:00:00 20,9 10,1 4 2 9 5 NNW 1023,5 0,0
15.10.2017 02:00:00 21,2 10,1 3 2 14 8 N 1023,9 -
15.10.2017 01:00:00 21,7 11,7 10 5 15 8 NNW 1023,9 0,0
15.10.2017 00:00:00 21,9 13,0 5 3 16 9 N 1023,8 0,0
14.10.2017 23:00:00 22,1 16,6 2 1 7 4 NNE 1023,7 0,0
14.10.2017 22:00:00 22,3 16,1 4 2 9 5 NNE 1023,1 0,0
14.10.2017 21:00:00 23,2 16,5 1 0 7 4 SSE 1022,9 0,0
14.10.2017 20:00:00 22,9 14,7 4 2 9 5 E 1023,0 -
14.10.2017 19:00:00 23,8 14,2 3 2 10 6 SSE 1022,6 0,0
14.10.2017 18:00:00 24,9 13,8 1 1 10 6 ESE 1022,5 0,0
14.10.2017 17:00:00 25,9 13,1 3 2 10 5 ESE 1022,2 0,0
14.10.2017 16:00:00 25,2 12,8 6 3 11 6 E 1022,8 0,0
14.10.2017 15:00:00 26,7 12,4 3 1 12 6 SSW 1022,9 0,0
14.10.2017 14:00:00 25,5 12,4 4 2 13 7 E 1023,4 -
14.10.2017 13:00:00 26,4 10,1 4 2 9 5 SSW 1024,0 0,0
14.10.2017 12:00:00 26,8 10,5 3 2 7 4 S 1024,2 0,0
14.10.2017 11:00:00 27,3 10,1 0 0 5 3 ENE 1023,8 0,0
14.10.2017 10:00:00 24,7 7,4 2 1 5 3 NW 1023,3 0,0
14.10.2017 09:00:00 21,7 7,2 0 0 6 3 NNW 1022,6 0,0
14.10.2017 08:00:00 20,9 6,1 2 1 9 5 N 1022,2 -
14.10.2017 07:00:00 20,8 6,7 1 0 6 3 WNW 1022,0 0,0
14.10.2017 06:00:00 20,8 6,7 0 0 6 3 N 1021,9 0,0
14.10.2017 05:00:00 21,7 7,9 3 1 8 4 NW 1022,0 0,0
14.10.2017 04:00:00 21,7 7,2 3 1 9 5 W 1022,5 0,0
14.10.2017 03:00:00 21,8 10,9 0 0 6 3 ESE 1022,9 0,0
14.10.2017 02:00:00 21,8 11,2 1 0 8 4 E 1022,9 -
14.10.2017 01:00:00 23,5 8,0 4 2 12 7 NNW 1023,0 0,0
14.10.2017 00:00:00 22,7 10,2 6 3 13 7 NNW 1023,1 0,0
13.10.2017 23:00:00 23,0 12,6 3 1 8 4 N 1023,1 0,0
13.10.2017 22:00:00 23,4 14,1 4 2 8 5 NW 1023,0 0,0
13.10.2017 21:00:00 23,3 15,1 0 0 4 2 SE 1022,7 0,0
13.10.2017 20:00:00 23,6 13,5 2 1 4 2 SE 1022,8 -
13.10.2017 19:00:00 25,2 12,4 1 0 8 4 S 1022,6 0,0
13.10.2017 18:00:00 24,4 12,4 3 2 9 5 E 1022,8 0,0
13.10.2017 17:00:00 24,8 11,4 5 3 11 6 ESE 1022,8 0,0
13.10.2017 16:00:00 27,5 9,3 5 3 15 8 SSE 1023,2 0,0
13.10.2017 15:00:00 28,7 9,4 6 3 10 6 S 1023,4 0,0
13.10.2017 14:00:00 26,6 8,6 3 2 13 7 S 1024,2 -
13.10.2017 13:00:00 27,6 8,5 5 3 18 10 SSW 1025,3 0,0
13.10.2017 12:00:00 27,4 7,8 6 4 12 6 SW 1025,1 0,0
13.10.2017 11:00:00 26,5 8,9 4 2 12 7 NE 1024,4 0,0
13.10.2017 10:00:00 23,4 6,7 4 2 17 9 NNW 1024,3 0,0
13.10.2017 09:00:00 - - - - - - - - -
13.10.2017 08:00:00 - - - - - - - - -
13.10.2017 07:00:00 - - - - - - - - -
13.10.2017 06:00:00 - - - - - - - - -
13.10.2017 05:00:00 - - - - - - - - -
13.10.2017 04:00:00 - - - - - - - - -
13.10.2017 03:00:00 - - - - - - - - -
13.10.2017 02:00:00 - - - - - - - - -
13.10.2017 01:00:00 - - - - - - - - -
13.10.2017 00:00:00 - - - - - - - - -
12.10.2017 23:00:00 - - - - - - - - -
12.10.2017 22:00:00 - - - - - - - - -
12.10.2017 21:00:00 - - - - - - - - -
12.10.2017 20:00:00 - - - - - - - - -
12.10.2017 19:00:00 - - - - - - - - -
12.10.2017 18:00:00 - - - - - - - - -
12.10.2017 17:00:00 - - - - - - - - -
12.10.2017 16:00:00 - - - - - - - - -

tt = Température de l'air
td = dewpoint
ff = Vitesse du vent
fx = gusts
dd = Direction du vent
ppp = reduced air pressure
rr = Quantités de précipitations

stations d'obs. à proximité